Pen Mar, Pennsylvania
Current Conditions -  °F | °C
As of 7:25 AM on Wednesday 26 Nov 2014 (Local Time) from KRYT Reporting Station
Moderate Rain Moderate Rain  
Wind Chill: 37°   Ceiling: 1300
Heat Index: 37°   Visibility: 4mi
Dew Point: 34°   Wind: 0mph
Humidity: 87%   Direction: NA
Pressure: 30.07"   Gusts: NA
Location:  39.7777°N, 77.5693°W
Report Text: KRYT 261225Z AUTO 00000KT 4SM RA BR OVC013 03/01 A3007 RMK AO2 P0006 $
Loading
Personal Weather Stations






























Interactive Weather Map New forecast layout! Learn more

10-Day Weather Forecast

Advertisements
Track Severe Weather on mobile